createdAt,value
2022-08-28T00:00:42.544Z,97471.36
2022-08-28T00:03:11.633Z,97472.49
2022-08-28T00:05:40.193Z,97479.77
2022-08-28T00:08:09.393Z,97477.17
2022-08-28T00:10:39.831Z,97478.71
2022-08-28T00:13:08.668Z,97473.50
2022-08-28T00:15:38.557Z,97483.76
2022-08-28T00:18:06.871Z,97487.02
2022-08-28T00:20:34.850Z,97486.88
2022-08-28T00:23:02.246Z,97486.50
2022-08-28T00:25:31.469Z,97484.02
2022-08-28T00:28:05.400Z,97486.11
2022-08-28T00:30:48.372Z,97488.10
2022-08-28T00:33:20.098Z,97486.91
2022-08-28T00:35:47.714Z,97486.91
2022-08-28T00:38:14.834Z,97490.80
2022-08-28T00:40:44.165Z,97487.52
2022-08-28T00:43:24.630Z,97487.52
2022-08-28T00:45:51.641Z,97488.00
2022-08-28T00:48:18.489Z,97485.63
2022-08-28T00:51:03.688Z,97481.21
2022-08-28T00:53:32.915Z,97480.77
2022-08-28T00:56:07.019Z,97481.23
2022-08-28T00:58:43.018Z,97478.54
2022-08-28T01:01:11.944Z,97482.81
2022-08-28T01:03:38.821Z,97485.20
2022-08-28T01:06:07.456Z,97488.40
2022-08-28T01:08:36.182Z,97490.41
2022-08-28T01:11:06.697Z,97490.48
2022-08-28T01:13:33.978Z,97494.19
2022-08-28T01:16:03.013Z,97491.02
2022-08-28T01:18:31.752Z,97490.86
2022-08-28T01:21:11.189Z,97490.15
2022-08-28T01:23:59.727Z,97492.70
2022-08-28T01:26:29.225Z,97493.02
2022-08-28T01:28:58.311Z,97495.17
2022-08-28T01:31:28.421Z,97495.79
2022-08-28T01:33:57.312Z,97492.75
2022-08-28T01:36:24.962Z,97497.16
2022-08-28T01:39:07.546Z,97497.90
2022-08-28T01:41:37.236Z,97498.67
2022-08-28T01:44:05.750Z,97502.13
2022-08-28T01:46:32.799Z,97500.04
2022-08-28T01:48:59.911Z,97498.53
2022-08-28T01:51:27.477Z,97502.45
2022-08-28T01:53:54.177Z,97499.61
2022-08-28T01:56:20.939Z,97495.84
2022-08-28T01:58:47.690Z,97491.66
2022-08-28T02:01:19.902Z,97488.46
2022-08-28T02:03:47.584Z,97493.09
2022-08-28T02:06:15.994Z,97489.26
2022-08-28T02:08:42.815Z,97490.58
2022-08-28T02:11:09.833Z,97496.98
2022-08-28T02:13:37.575Z,97495.27
2022-08-28T02:16:08.308Z,97493.16
2022-08-28T02:18:37.343Z,97495.38
2022-08-28T02:21:05.130Z,97498.58
2022-08-28T02:23:31.739Z,97498.98
2022-08-28T02:25:58.461Z,97496.57
2022-08-28T02:28:25.159Z,97493.30
2022-08-28T02:30:52.074Z,97492.56
2022-08-28T02:33:18.771Z,97491.86
2022-08-28T02:35:45.504Z,97491.83
2022-08-28T02:38:12.316Z,97493.89
2022-08-28T02:40:40.830Z,97497.25
2022-08-28T02:43:07.879Z,97500.23
2022-08-28T02:45:35.411Z,97500.19
2022-08-28T02:48:02.377Z,97499.60
2022-08-28T02:50:30.919Z,97496.77
2022-08-28T02:52:57.909Z,97501.08
2022-08-28T02:55:24.752Z,97501.05
2022-08-28T02:57:52.326Z,97501.18
2022-08-28T03:00:22.528Z,97497.51
2022-08-28T03:02:50.523Z,97494.29
2022-08-28T03:05:20.728Z,97495.80
2022-08-28T03:07:48.644Z,97497.55
2022-08-28T03:10:15.690Z,97495.21
2022-08-28T03:12:42.474Z,97496.88
2022-08-28T03:15:09.634Z,97501.73
2022-08-28T03:17:36.887Z,97504.63
2022-08-28T03:20:09.117Z,97505.75
2022-08-28T03:22:54.279Z,97507.73
2022-08-28T03:25:21.956Z,97510.48
2022-08-28T03:27:49.459Z,97512.61
2022-08-28T03:30:17.095Z,97514.70
2022-08-28T03:32:44.013Z,97520.63
2022-08-28T03:35:11.487Z,97520.38
2022-08-28T03:37:38.813Z,97519.80
2022-08-28T03:40:07.938Z,97523.67
2022-08-28T03:42:35.280Z,97526.95
2022-08-28T03:45:02.202Z,97525.93
2022-08-28T03:47:29.690Z,97530.57
2022-08-28T03:49:57.657Z,97532.58
2022-08-28T03:52:25.227Z,97534.45
2022-08-28T03:54:52.236Z,97537.30
2022-08-28T03:57:21.200Z,97535.20
2022-08-28T03:59:49.768Z,97534.58
2022-08-28T04:02:18.830Z,97539.33
2022-08-28T04:04:47.665Z,97541.75
2022-08-28T04:07:14.599Z,97545.77
2022-08-28T04:09:41.532Z,97546.45
2022-08-28T04:12:09.378Z,97547.13
2022-08-28T04:14:36.190Z,97551.73
2022-08-28T04:17:03.841Z,97552.14
2022-08-28T04:19:31.083Z,97554.20
2022-08-28T04:21:57.865Z,97557.55
2022-08-28T04:24:24.610Z,97555.92
2022-08-28T04:26:51.241Z,97559.55
2022-08-28T04:29:17.972Z,97560.75
2022-08-28T04:31:44.794Z,97561.83
2022-08-28T04:34:11.518Z,97563.14
2022-08-28T04:36:38.219Z,97566.18
2022-08-28T04:39:08.073Z,97566.55
2022-08-28T04:41:37.019Z,97567.51
2022-08-28T04:44:04.461Z,97569.31
2022-08-28T04:46:31.499Z,97571.60
2022-08-28T04:48:59.011Z,97572.67
2022-08-28T04:51:26.633Z,97576.22
2022-08-28T04:53:53.290Z,97573.85
2022-08-28T04:56:20.048Z,97576.84
2022-08-28T04:58:47.150Z,97577.99
2022-08-28T05:01:18.188Z,97577.39
2022-08-28T05:03:46.568Z,97577.48
2022-08-28T05:06:15.476Z,97578.95
2022-08-28T05:08:42.305Z,97581.40
2022-08-28T05:11:24.589Z,97582.04
2022-08-28T05:14:05.760Z,97584.04
2022-08-28T05:16:39.100Z,97585.61
2022-08-28T05:19:05.797Z,97583.96
2022-08-28T05:21:32.432Z,97585.42
2022-08-28T05:23:59.145Z,97585.73
2022-08-28T05:26:28.349Z,97584.36
2022-08-28T05:28:57.750Z,97583.98
2022-08-28T05:31:26.281Z,97585.41
2022-08-28T05:33:53.520Z,97587.80
2022-08-28T05:36:25.839Z,97584.36
2022-08-28T05:39:00.888Z,97582.27
2022-08-28T05:41:30.321Z,97580.63
2022-08-28T05:43:59.101Z,97582.57
2022-08-28T05:46:27.808Z,97582.73
2022-08-28T05:48:55.601Z,97590.78
2022-08-28T05:51:26.021Z,97598.48
2022-08-28T05:53:53.917Z,97602.10
2022-08-28T05:56:25.810Z,97605.23
2022-08-28T05:58:52.833Z,97606.05
2022-08-28T06:01:23.287Z,97605.52
2022-08-28T06:03:57.046Z,97605.95
2022-08-28T06:06:25.733Z,97603.39
2022-08-28T06:08:59.031Z,97605.83
2022-08-28T06:11:31.019Z,97610.60
2022-08-28T06:14:03.953Z,97609.37
2022-08-28T06:16:31.883Z,97612.39
2022-08-28T06:19:00.243Z,97608.56
2022-08-28T06:21:28.137Z,97611.19
2022-08-28T06:23:55.632Z,97612.66
2022-08-28T06:26:22.828Z,97612.80
2022-08-28T06:28:49.554Z,97615.67
2022-08-28T06:31:24.567Z,97611.91
2022-08-28T06:33:54.405Z,97612.39
2022-08-28T06:36:22.335Z,97611.20
2022-08-28T06:38:49.471Z,97611.42
2022-08-28T06:41:17.942Z,97613.59
2022-08-28T06:43:44.744Z,97610.27
2022-08-28T06:46:11.652Z,97606.58
2022-08-28T06:48:38.695Z,97604.96
2022-08-28T06:51:08.900Z,97608.39
2022-08-28T06:53:37.760Z,97609.62
2022-08-28T06:56:08.120Z,97607.20
2022-08-28T06:58:40.107Z,97606.79
2022-08-28T07:01:10.064Z,97608.28
2022-08-28T07:03:42.597Z,97606.19
2022-08-28T07:06:13.556Z,97601.30
2022-08-28T07:08:41.947Z,97596.34
2022-08-28T07:11:30.920Z,97595.26
2022-08-28T07:13:58.366Z,97590.68
2022-08-28T07:16:29.605Z,97592.23
2022-08-28T07:18:57.847Z,97589.30
2022-08-28T07:21:25.539Z,97587.27
2022-08-28T07:23:52.985Z,97585.16
2022-08-28T07:26:23.471Z,97584.26
2022-08-28T07:28:52.815Z,97583.23
2022-08-28T07:31:37.277Z,97581.10
2022-08-28T07:34:04.416Z,97581.84
2022-08-28T07:36:31.197Z,97577.27
2022-08-28T07:38:59.512Z,97580.89
2022-08-28T07:41:30.317Z,97583.58
2022-08-28T07:44:16.158Z,97580.86
2022-08-28T07:46:44.191Z,97583.09
2022-08-28T07:49:12.098Z,97583.35
2022-08-28T07:51:38.817Z,97587.44
2022-08-28T07:54:06.911Z,97591.27
2022-08-28T07:56:40.148Z,97593.27
2022-08-28T07:59:10.135Z,97591.52
2022-08-28T08:01:39.950Z,97588.80
2022-08-28T08:04:09.341Z,97583.04
2022-08-28T08:06:39.013Z,97576.18
2022-08-28T08:09:09.816Z,97575.08
2022-08-28T08:11:36.729Z,97571.08
2022-08-28T08:14:05.812Z,97568.31
2022-08-28T08:16:35.428Z,97562.12
2022-08-28T08:19:03.490Z,97561.17
2022-08-28T08:21:30.928Z,97562.40
2022-08-28T08:23:58.757Z,97568.34
2022-08-28T08:26:30.002Z,97568.09
2022-08-28T08:28:58.455Z,97569.64
2022-08-28T08:31:28.980Z,97570.42
2022-08-28T08:33:58.585Z,97573.23
2022-08-28T08:36:26.477Z,97574.73
2022-08-28T08:38:59.673Z,97573.52
2022-08-28T08:41:47.351Z,97573.61
2022-08-28T08:44:41.162Z,97572.52
2022-08-28T08:47:18.971Z,97572.36
2022-08-28T08:50:01.187Z,97569.60
2022-08-28T08:52:56.672Z,97571.08
2022-08-28T08:55:30.793Z,97574.38
2022-08-28T08:58:03.947Z,97570.20
2022-08-28T09:00:36.636Z,97567.27
2022-08-28T09:03:14.663Z,97564.92
2022-08-28T09:06:02.739Z,97566.02
2022-08-28T09:08:50.115Z,97565.34
2022-08-28T09:11:23.018Z,97565.55
2022-08-28T09:14:07.440Z,97564.06
2022-08-28T09:16:43.901Z,97566.23
2022-08-28T09:19:16.699Z,97566.92
2022-08-28T09:21:44.885Z,97568.48
2022-08-28T09:24:26.025Z,97568.02
2022-08-28T09:26:55.113Z,97571.10
2022-08-28T09:29:29.751Z,97571.10
2022-08-28T09:31:57.271Z,97569.77
2022-08-28T09:34:28.401Z,97564.36
2022-08-28T09:36:58.013Z,97562.17
2022-08-28T09:39:30.360Z,97560.27
2022-08-28T09:42:25.799Z,97560.98
2022-08-28T09:44:55.971Z,97559.59
2022-08-28T09:47:48.421Z,97558.43
2022-08-28T09:50:19.888Z,97558.31
2022-08-28T09:52:46.837Z,97556.98
2022-08-28T09:55:31.325Z,97556.38
2022-08-28T09:57:58.552Z,97552.21
2022-08-28T10:00:26.504Z,97549.80
2022-08-28T10:03:10.624Z,97546.44
2022-08-28T10:05:56.471Z,97549.52
2022-08-28T10:08:36.583Z,97543.27
2022-08-28T10:11:19.419Z,97547.29
2022-08-28T10:13:59.498Z,97544.80
2022-08-28T10:16:37.790Z,97547.23
2022-08-28T10:19:31.499Z,97547.63
2022-08-28T10:22:18.721Z,97544.13
2022-08-28T10:24:57.367Z,97544.94
2022-08-28T10:27:36.379Z,97544.35
2022-08-28T10:30:14.681Z,97544.56
2022-08-28T10:32:46.881Z,97542.27
2022-08-28T10:35:24.813Z,97541.49
2022-08-28T10:38:23.411Z,97541.02
2022-08-28T10:41:03.673Z,97540.64
2022-08-28T10:43:50.677Z,97536.59
2022-08-28T10:46:45.509Z,97534.86
2022-08-28T10:49:30.877Z,97535.83
2022-08-28T10:52:11.766Z,97529.92
2022-08-28T10:54:53.326Z,97526.79
2022-08-28T10:57:42.051Z,97528.15
2022-08-28T11:00:13.206Z,97526.06
2022-08-28T11:02:50.940Z,97522.78
2022-08-28T11:05:31.291Z,97517.20
2022-08-28T11:08:08.571Z,97520.47
2022-08-28T11:10:35.208Z,97520.65
2022-08-28T11:13:05.664Z,97525.00
2022-08-28T11:15:37.203Z,97526.38
2022-08-28T11:18:13.453Z,97522.33
2022-08-28T11:20:44.560Z,97521.63
2022-08-28T11:23:11.424Z,97517.35
2022-08-28T11:25:46.926Z,97511.35
2022-08-28T11:28:23.871Z,97505.04
2022-08-28T11:31:05.657Z,97508.05
2022-08-28T11:33:49.281Z,97508.80
2022-08-28T11:36:22.028Z,97506.03
2022-08-28T11:38:51.720Z,97505.17
2022-08-28T11:41:22.219Z,97502.02
2022-08-28T11:43:51.924Z,97502.78
2022-08-28T11:46:27.595Z,97501.95
2022-08-28T11:48:56.761Z,97504.50
2022-08-28T11:51:49.174Z,97502.17
2022-08-28T11:54:34.413Z,97500.42
2022-08-28T11:57:14.166Z,97499.18
2022-08-28T12:00:02.377Z,97501.91
2022-08-28T12:03:14.956Z,97499.90
2022-08-28T12:05:49.169Z,97498.02
2022-08-28T12:08:52.693Z,97497.52
2022-08-28T12:11:41.503Z,97501.29
2022-08-28T12:14:27.045Z,97498.40
2022-08-28T12:17:08.199Z,97496.08
2022-08-28T12:19:54.617Z,97495.37
2022-08-28T12:22:39.056Z,97494.96
2022-08-28T12:25:20.165Z,97494.61
2022-08-28T12:27:47.712Z,97488.65
2022-08-28T12:30:27.537Z,97488.00
2022-08-28T12:33:05.735Z,97489.86
2022-08-28T12:35:32.744Z,97491.11
2022-08-28T12:38:02.640Z,97489.82
2022-08-28T12:40:50.631Z,97488.40
2022-08-28T12:43:31.469Z,97490.80
2022-08-28T12:46:03.669Z,97488.27
2022-08-28T12:48:53.718Z,97489.20
2022-08-28T12:51:26.743Z,97486.58
2022-08-28T12:53:57.424Z,97483.71
2022-08-28T12:56:25.792Z,97480.91
2022-08-28T12:58:52.589Z,97484.13
2022-08-28T13:01:33.727Z,97483.17
2022-08-28T13:04:21.447Z,97484.77
2022-08-28T13:07:00.520Z,97480.95
2022-08-28T13:09:28.581Z,97486.17
2022-08-28T13:11:55.257Z,97488.15
2022-08-28T13:14:38.415Z,97494.03
2022-08-28T13:17:05.354Z,97507.84
2022-08-28T13:19:33.525Z,97509.60
2022-08-28T13:22:24.937Z,97518.05
2022-08-28T13:25:00.906Z,97521.81
2022-08-28T13:27:29.814Z,97518.45
2022-08-28T13:30:30.554Z,97520.15
2022-08-28T13:33:05.837Z,97516.55
2022-08-28T13:35:41.539Z,97518.05
2022-08-28T13:38:24.052Z,97519.22
2022-08-28T13:41:03.985Z,97515.96
2022-08-28T13:43:44.733Z,97510.98
2022-08-28T13:46:13.953Z,97507.26
2022-08-28T13:48:40.896Z,97507.52
2022-08-28T13:51:20.665Z,97510.87
2022-08-28T13:53:48.979Z,97509.48
2022-08-28T13:56:17.160Z,97510.52
2022-08-28T13:58:44.415Z,97511.98
2022-08-28T14:01:20.136Z,97505.95
2022-08-28T14:03:51.113Z,97499.75
2022-08-28T14:06:17.946Z,97497.77
2022-08-28T14:08:49.480Z,97492.20
2022-08-28T14:11:16.551Z,97492.92
2022-08-28T14:22:34.489Z,97491.41
2022-08-28T14:29:43.945Z,97486.80
2022-08-28T14:34:59.757Z,97490.12
2022-08-28T14:41:48.083Z,97479.41
2022-08-28T14:49:21.476Z,97475.51
2022-08-28T14:52:19.278Z,97477.44
2022-08-28T14:55:24.513Z,97477.70
2022-08-28T14:57:56.267Z,97472.27
2022-08-28T15:00:26.028Z,97471.35
2022-08-28T15:03:28.216Z,97472.84
2022-08-28T15:06:28.082Z,97475.03
2022-08-28T15:08:58.087Z,97475.09
2022-08-28T15:11:55.444Z,97473.95
2022-08-28T15:14:22.467Z,97475.20
2022-08-28T15:16:49.816Z,97474.63
2022-08-28T15:19:23.558Z,97475.70
2022-08-28T15:22:03.718Z,97474.64
2022-08-28T15:24:33.821Z,97475.87
2022-08-28T15:27:03.535Z,97473.20
2022-08-28T15:29:37.582Z,97472.88
2022-08-28T15:32:04.475Z,97471.02
2022-08-28T15:34:34.301Z,97472.79
2022-08-28T15:37:59.580Z,97477.81
2022-08-28T15:42:07.772Z,97477.52
2022-08-28T15:44:43.929Z,97469.02
2022-08-28T15:47:13.205Z,97468.61
2022-08-28T15:49:44.798Z,97465.19
2022-08-28T15:52:18.288Z,97463.62
2022-08-28T16:03:00.623Z,97471.80
2022-08-28T16:08:58.816Z,97467.05
2022-08-28T16:11:26.720Z,97465.82
2022-08-28T16:13:54.002Z,97461.18
2022-08-28T16:16:20.941Z,97457.90
2022-08-28T16:18:47.855Z,97456.14
2022-08-28T16:21:14.738Z,97456.02
2022-08-28T16:23:45.672Z,97453.91
2022-08-28T16:26:16.040Z,97454.38
2022-08-28T16:28:45.844Z,97453.18
2022-08-28T16:31:20.568Z,97451.07
2022-08-28T16:33:49.139Z,97452.05
2022-08-28T16:36:18.021Z,97454.82
2022-08-28T16:38:47.920Z,97457.25
2022-08-28T16:41:21.203Z,97458.42
2022-08-28T16:43:49.049Z,97455.90
2022-08-28T16:50:59.430Z,97460.27
2022-08-28T16:53:57.814Z,97467.29
2022-08-28T17:14:28.014Z,97480.09
2022-08-28T17:14:46.172Z,97505.70
2022-08-28T17:17:12.909Z,97509.98
2022-08-28T17:19:39.965Z,97514.65
2022-08-28T17:22:27.343Z,97513.54
2022-08-28T17:25:07.766Z,97518.98
2022-08-28T17:27:36.071Z,97529.11
2022-08-28T17:30:04.593Z,97532.88
2022-08-28T17:32:31.727Z,97536.84
2022-08-28T17:34:59.075Z,97543.20
2022-08-28T17:37:25.969Z,97544.81
2022-08-28T17:39:53.226Z,97541.73
2022-08-28T17:42:20.179Z,97545.13
2022-08-28T17:44:47.067Z,97552.48
2022-08-28T17:47:13.983Z,97554.44
2022-08-28T17:49:40.941Z,97556.02
2022-08-28T17:52:07.980Z,97556.63
2022-08-28T17:54:34.896Z,97560.63
2022-08-28T17:57:02.809Z,97564.42
2022-08-28T17:59:29.987Z,97565.27
2022-08-28T18:01:56.897Z,97565.46
2022-08-28T18:04:24.734Z,97566.11
2022-08-28T18:06:53.806Z,97563.33
2022-08-28T18:09:22.529Z,97570.92
2022-08-28T18:11:50.146Z,97561.93
2022-08-28T18:14:17.427Z,97566.81
2022-08-28T18:16:44.592Z,97567.59
2022-08-28T18:19:13.134Z,97570.98
2022-08-28T18:21:40.535Z,97574.19
2022-08-28T18:24:09.601Z,97575.48
2022-08-28T18:26:36.371Z,97576.09
2022-08-28T18:29:03.415Z,97579.56
2022-08-28T18:31:31.714Z,97577.07
2022-08-28T18:33:59.359Z,97567.75
2022-08-28T18:36:41.684Z,97576.77
2022-08-28T18:39:09.605Z,97576.42
2022-08-28T18:41:43.790Z,97571.26
2022-08-28T18:44:13.709Z,97574.48
2022-08-28T18:46:42.076Z,97577.14
2022-08-28T18:49:09.590Z,97579.01
2022-08-28T18:51:37.002Z,97578.94
2022-08-28T18:54:04.257Z,97576.59
2022-08-28T18:56:33.706Z,97575.58
2022-08-28T18:59:03.639Z,97577.01
2022-08-28T19:01:30.924Z,97581.48
2022-08-28T19:03:58.048Z,97582.42
2022-08-28T19:06:25.242Z,97583.34
2022-08-28T19:08:52.319Z,97586.48
2022-08-28T19:11:19.559Z,97586.89
2022-08-28T19:13:50.214Z,97587.31
2022-08-28T19:16:25.305Z,97585.83
2022-08-28T19:19:23.291Z,97587.94
2022-08-28T20:02:48.414Z,97627.45
2022-08-28T20:05:22.347Z,97632.85
2022-08-28T20:08:26.508Z,97639.36
2022-08-28T20:16:07.791Z,97644.56
2022-08-28T20:20:15.020Z,97639.08
2022-08-28T20:23:16.457Z,97639.73
2022-08-28T20:26:13.701Z,97646.62
2022-08-28T20:28:55.941Z,97651.07
2022-08-28T20:31:47.227Z,97651.36
2022-08-28T20:34:49.587Z,97659.64
2022-08-28T20:37:32.527Z,97659.23
2022-08-28T20:40:12.401Z,97657.79
2022-08-28T20:42:57.428Z,97662.90
2022-08-28T20:45:31.863Z,97662.48
2022-08-28T20:48:11.767Z,97663.67
2022-08-28T20:50:51.968Z,97667.09
2022-08-28T20:53:42.882Z,97667.38
2022-08-28T20:56:53.570Z,97665.75
2022-08-28T20:59:43.730Z,97668.63
2022-08-28T21:02:18.114Z,97670.45
2022-08-28T21:04:46.070Z,97669.23
2022-08-28T21:07:15.726Z,97669.76
2022-08-28T21:10:06.137Z,97670.80
2022-08-28T21:12:33.957Z,97671.22
2022-08-28T21:15:01.203Z,97670.34
2022-08-28T21:17:29.967Z,97672.56
2022-08-28T21:20:04.410Z,97669.63
2022-08-28T21:22:32.963Z,97665.73
2022-08-28T21:25:07.277Z,97672.73
2022-08-28T21:27:37.844Z,97672.23
2022-08-28T21:30:07.311Z,97675.23
2022-08-28T21:32:37.467Z,97680.71
2022-08-28T21:35:07.605Z,97682.54
2022-08-28T21:37:37.416Z,97683.02
2022-08-28T21:40:07.368Z,97686.48
2022-08-28T21:42:37.061Z,97683.15
2022-08-28T21:45:09.766Z,97682.70
2022-08-28T21:47:39.447Z,97683.93
2022-08-28T21:50:07.480Z,97683.52
2022-08-28T21:52:35.169Z,97682.49
2022-08-28T21:55:14.544Z,97683.45
2022-08-28T21:57:44.132Z,97690.86
2022-08-28T22:00:16.882Z,97689.25
2022-08-28T22:02:44.126Z,97692.17
2022-08-28T22:05:11.655Z,97694.48
2022-08-28T22:07:41.105Z,97689.42
2022-08-28T22:10:08.866Z,97688.81
2022-08-28T22:12:35.624Z,97691.31
2022-08-28T22:15:02.734Z,97688.96
2022-08-28T22:17:29.677Z,97690.55
2022-08-28T22:19:56.664Z,97688.44
2022-08-28T22:22:44.695Z,97689.36
2022-08-28T22:25:12.428Z,97689.23
2022-08-28T22:27:41.447Z,97689.81
2022-08-28T22:30:09.033Z,97687.84
2022-08-28T22:32:36.082Z,97682.69
2022-08-28T22:35:03.279Z,97681.29
2022-08-28T22:37:30.199Z,97679.13
2022-08-28T22:39:58.700Z,97679.88
2022-08-28T22:42:25.673Z,97676.23
2022-08-28T22:44:52.650Z,97676.98
2022-08-28T22:47:19.423Z,97674.58
2022-08-28T22:49:47.029Z,97669.20
2022-08-28T22:52:15.000Z,97667.93
2022-08-28T22:54:43.212Z,97665.00
2022-08-28T22:57:10.724Z,97665.13
2022-08-28T22:59:37.533Z,97663.73
2022-08-28T23:02:05.950Z,97668.30
2022-08-28T23:04:33.989Z,97669.33
2022-08-28T23:07:01.770Z,97670.34
2022-08-28T23:09:28.621Z,97666.65
2022-08-28T23:11:55.651Z,97669.31
2022-08-28T23:14:27.146Z,97672.86
2022-08-28T23:16:55.474Z,97670.27
2022-08-28T23:19:23.292Z,97672.93
2022-08-28T23:21:50.700Z,97674.79
2022-08-28T23:24:17.796Z,97676.49
2022-08-28T23:26:45.326Z,97677.19
2022-08-28T23:29:13.522Z,97678.85
2022-08-28T23:31:41.282Z,97684.25
2022-08-28T23:34:08.762Z,97687.95
2022-08-28T23:36:36.731Z,97701.38
2022-08-28T23:39:04.443Z,97694.30
2022-08-28T23:41:32.602Z,97696.29
2022-08-28T23:44:08.288Z,97697.64
2022-08-28T23:46:41.091Z,97697.05
2022-08-28T23:49:12.490Z,97700.38
2022-08-28T23:51:41.414Z,97700.83
2022-08-28T23:54:12.071Z,97697.09
2022-08-28T23:56:39.094Z,97697.92
2022-08-28T23:59:06.271Z,97695.60
